Terminal Aerodrome Forecast
Issued by NWS Twin Cities, MN

Home | Current Version | Previous Version | Text Only | Print | Product List | Glossary On
Versions: 1 2 3 4 5 6 7 8 9 10 11 12 13 14 15 16 17 18 19 20 21 22 23 24 25 26 27 28 29 30 31 32 33
000
FTUS43 KMPX 020533
TAFMSP
TAF
KMSP 020533Z 0206/0312 17005KT 6SM BR BKN150 OVC200
     FM020700 16008KT 6SM -SHRA BR BKN080
      TEMPO 0208/0210 4SM -TSRA BKN050CB OVC100
     FM021200 16008KT P6SM SCT015 BKN080
     FM022000 16011KT P6SM SCT050
     FM030200 15005KT P6SM SCT050
     FM030300 13005KT 6SM BR FEW007 SCT250=

USA.gov is the U.S. government's official web portal to all federal, state and local government web resources and services.